createdAt,value
2023-03-11T00:06:42.295Z,93.13
2023-03-11T00:09:15.452Z,93.86
2023-03-11T00:12:11.092Z,92.80
2023-03-11T00:15:44.415Z,93.31
2023-03-11T00:18:32.767Z,93.80
2023-03-11T00:25:26.551Z,93.87
2023-03-11T00:33:42.946Z,95.97
2023-03-11T00:35:07.578Z,96.42
2023-03-11T00:37:36.736Z,97.05
2023-03-11T00:40:09.758Z,96.70
2023-03-11T00:46:31.536Z,97.42
2023-03-11T00:49:26.306Z,99.38
2023-03-11T00:51:53.168Z,99.03
2023-03-11T00:54:36.092Z,98.64
2023-03-11T00:57:08.137Z,98.77
2023-03-11T01:00:37.408Z,98.88
2023-03-11T01:03:04.767Z,98.76
2023-03-11T01:05:37.313Z,97.80
2023-03-11T01:08:15.492Z,98.22
2023-03-11T01:17:19.348Z,96.20
2023-03-11T01:19:50.401Z,95.25
2023-03-11T01:22:21.576Z,94.46
2023-03-11T01:24:49.844Z,95.92
2023-03-11T01:27:26.286Z,94.94
2023-03-11T01:29:56.345Z,94.85
2023-03-11T01:32:23.661Z,95.33
2023-03-11T01:35:03.276Z,94.75
2023-03-11T01:44:28.603Z,94.53
2023-03-11T01:47:10.336Z,94.39
2023-03-11T01:50:40.748Z,95.45
2023-03-11T01:56:13.893Z,95.50
2023-03-11T02:12:50.985Z,93.05
2023-03-11T02:15:49.408Z,92.74
2023-03-11T02:18:45.214Z,92.70
2023-03-11T02:22:18.988Z,90.67
2023-03-11T02:25:43.803Z,91.39
2023-03-11T02:28:19.852Z,90.67
2023-03-11T02:31:12.067Z,90.60
2023-03-11T02:34:22.713Z,90.49
2023-03-11T02:37:17.392Z,91.03
2023-03-11T02:40:01.530Z,90.15
2023-03-11T02:48:53.741Z,88.14
2023-03-11T03:03:20.618Z,85.39
2023-03-11T03:09:30.766Z,83.83
2023-03-11T03:12:19.477Z,82.73
2023-03-11T03:14:50.528Z,82.58
2023-03-11T03:17:53.165Z,81.60
2023-03-11T03:20:42.264Z,81.46
2023-03-11T03:23:16.689Z,78.10
2023-03-11T03:29:34.858Z,77.82
2023-03-11T03:35:59.586Z,77.36
2023-03-11T03:38:41.138Z,77.11
2023-03-11T03:41:29.673Z,77.61
2023-03-11T03:51:12.236Z,83.47
2023-03-11T03:53:56.148Z,84.32
2023-03-11T04:03:18.986Z,88.21
2023-03-11T04:09:29.651Z,91.06
2023-03-11T04:15:24.867Z,93.70
2023-03-11T04:18:06.036Z,93.93
2023-03-11T04:20:34.053Z,93.92
2023-03-11T04:23:00.735Z,93.47
2023-03-11T04:25:27.721Z,95.16
2023-03-11T04:27:54.918Z,95.28
2023-03-11T04:30:23.425Z,95.46
2023-03-11T04:33:32.798Z,96.01
2023-03-11T04:35:55.687Z,96.11
2023-03-11T04:38:27.401Z,96.96
2023-03-11T04:40:54.427Z,96.70
2023-03-11T04:43:21.228Z,96.80
2023-03-11T04:45:50.956Z,97.02
2023-03-11T04:48:17.868Z,96.72
2023-03-11T04:50:44.678Z,97.30
2023-03-11T04:53:11.586Z,96.89
2023-03-11T04:55:39.334Z,96.73
2023-03-11T04:58:06.385Z,97.38
2023-03-11T05:00:33.489Z,97.46
2023-03-11T05:03:01.431Z,97.05
2023-03-11T05:05:28.019Z,97.94
2023-03-11T05:07:55.112Z,98.71
2023-03-11T05:10:25.183Z,100.00
2023-03-11T05:12:52.252Z,100.00
2023-03-11T05:15:20.405Z,100.00
2023-03-11T05:17:47.775Z,100.00
2023-03-11T05:20:15.853Z,100.00
2023-03-11T05:22:43.313Z,100.00
2023-03-11T05:25:10.387Z,100.00
2023-03-11T05:27:37.228Z,100.00
2023-03-11T05:30:04.399Z,100.00
2023-03-11T05:32:31.493Z,100.00
2023-03-11T05:34:58.629Z,100.00
2023-03-11T05:37:26.351Z,100.00
2023-03-11T05:40:04.041Z,100.00
2023-03-11T05:42:31.888Z,100.00
2023-03-11T05:44:59.757Z,100.00
2023-03-11T05:47:27.507Z,100.00
2023-03-11T05:49:54.589Z,100.00
2023-03-11T05:52:21.407Z,100.00
2023-03-11T05:54:52.359Z,100.00
2023-03-11T05:57:20.488Z,100.00
2023-03-11T05:59:47.385Z,100.00
2023-03-11T06:02:17.852Z,100.00
2023-03-11T06:04:48.044Z,100.00
2023-03-11T06:07:16.522Z,100.00
2023-03-11T06:09:43.324Z,100.00
2023-03-11T06:12:10.313Z,100.00
2023-03-11T06:14:38.741Z,100.00
2023-03-11T06:17:05.757Z,100.00
2023-03-11T06:19:32.869Z,100.00
2023-03-11T06:22:02.714Z,100.00
2023-03-11T06:24:29.603Z,100.00
2023-03-11T06:26:59.646Z,100.00
2023-03-11T06:29:30.279Z,100.00
2023-03-11T06:32:00.311Z,100.00
2023-03-11T06:34:27.731Z,100.00
2023-03-11T06:36:55.102Z,100.00
2023-03-11T06:39:21.885Z,100.00
2023-03-11T06:41:48.770Z,100.00
2023-03-11T06:44:17.428Z,100.00
2023-03-11T06:46:44.406Z,100.00
2023-03-11T06:49:11.791Z,100.00
2023-03-11T06:51:38.541Z,100.00
2023-03-11T06:54:05.388Z,100.00
2023-03-11T06:56:32.927Z,100.00
2023-03-11T06:58:59.900Z,100.00
2023-03-11T07:01:28.882Z,100.00
2023-03-11T07:03:55.669Z,100.00
2023-03-11T07:06:25.542Z,100.00
2023-03-11T07:08:54.599Z,100.00
2023-03-11T07:11:24.547Z,100.00
2023-03-11T07:13:53.135Z,100.00
2023-03-11T07:16:28.981Z,100.00
2023-03-11T07:19:03.882Z,100.00
2023-03-11T07:21:32.970Z,100.00
2023-03-11T07:24:02.049Z,100.00
2023-03-11T07:26:30.272Z,100.00
2023-03-11T07:28:58.431Z,100.00
2023-03-11T07:31:31.087Z,100.00
2023-03-11T07:34:00.164Z,100.00
2023-03-11T07:36:28.598Z,100.00
2023-03-11T07:39:02.052Z,100.00
2023-03-11T07:41:35.597Z,100.00
2023-03-11T07:44:03.700Z,100.00
2023-03-11T07:46:32.057Z,100.00
2023-03-11T07:48:59.494Z,98.50
2023-03-11T07:51:32.442Z,99.03
2023-03-11T07:54:01.130Z,94.01
2023-03-11T07:56:31.531Z,91.07
2023-03-11T07:59:04.135Z,90.38
2023-03-11T08:01:39.773Z,90.58
2023-03-11T08:04:12.912Z,90.29
2023-03-11T08:06:56.204Z,89.95
2023-03-11T08:09:24.782Z,88.60
2023-03-11T08:12:04.673Z,88.75
2023-03-11T08:14:31.792Z,89.51
2023-03-11T08:16:59.284Z,88.92
2023-03-11T08:19:26.217Z,87.22
2023-03-11T08:21:53.546Z,86.51
2023-03-11T08:24:22.749Z,86.66
2023-03-11T08:26:49.756Z,87.10
2023-03-11T08:29:18.594Z,86.04
2023-03-11T08:31:47.391Z,87.35
2023-03-11T08:34:16.923Z,86.12
2023-03-11T08:36:44.622Z,86.81
2023-03-11T08:39:17.715Z,86.30
2023-03-11T08:41:47.725Z,86.76
2023-03-11T08:44:15.186Z,86.22
2023-03-11T08:46:41.943Z,86.51
2023-03-11T08:49:09.214Z,85.85
2023-03-11T08:51:37.167Z,85.65
2023-03-11T08:54:04.884Z,86.41
2023-03-11T08:56:32.324Z,86.17
2023-03-11T08:59:02.590Z,84.92
2023-03-11T09:01:42.864Z,84.97
2023-03-11T09:04:10.565Z,80.84
2023-03-11T09:06:49.540Z,78.94
2023-03-11T09:09:22.754Z,77.98
2023-03-11T09:11:50.083Z,76.11
2023-03-11T09:14:16.971Z,74.68
2023-03-11T09:16:44.113Z,73.74
2023-03-11T09:19:11.296Z,72.45
2023-03-11T09:21:42.775Z,71.27
2023-03-11T09:24:10.567Z,70.88
2023-03-11T09:26:38.636Z,67.33
2023-03-11T09:29:07.326Z,67.91
2023-03-11T09:31:34.319Z,66.42
2023-03-11T09:34:01.132Z,61.97
2023-03-11T09:36:28.390Z,61.62
2023-03-11T09:38:59.813Z,60.91
2023-03-11T09:41:57.582Z,60.36
2023-03-11T09:45:02.010Z,59.01
2023-03-11T09:47:51.774Z,58.50
2023-03-11T09:50:27.221Z,59.73
2023-03-11T09:53:02.297Z,58.46
2023-03-11T09:55:45.015Z,58.96
2023-03-11T09:58:44.319Z,61.73
2023-03-11T10:01:31.674Z,58.30
2023-03-11T10:04:17.312Z,56.12
2023-03-11T10:06:49.324Z,56.26
2023-03-11T10:09:38.924Z,54.97
2023-03-11T10:12:12.088Z,55.10
2023-03-11T10:14:57.706Z,56.43
2023-03-11T10:17:45.966Z,56.91
2023-03-11T10:20:19.844Z,57.07
2023-03-11T10:23:01.323Z,55.25
2023-03-11T10:25:42.569Z,55.85
2023-03-11T10:28:18.841Z,54.89
2023-03-11T10:30:53.455Z,52.72
2023-03-11T10:33:38.672Z,54.33
2023-03-11T10:39:44.033Z,52.52
2023-03-11T10:42:15.420Z,54.02
2023-03-11T10:44:46.505Z,53.40
2023-03-11T10:47:43.364Z,53.83
2023-03-11T10:50:16.290Z,54.64
2023-03-11T10:53:03.967Z,56.25
2023-03-11T10:55:47.690Z,54.36
2023-03-11T10:58:18.940Z,54.90
2023-03-11T11:00:46.635Z,54.51
2023-03-11T11:03:20.959Z,54.17
2023-03-11T11:06:00.215Z,54.92
2023-03-11T11:09:05.950Z,53.53
2023-03-11T11:11:35.777Z,52.65
2023-03-11T11:14:03.024Z,53.92
2023-03-11T11:16:35.706Z,53.31
2023-03-11T11:19:13.901Z,52.45
2023-03-11T11:21:51.332Z,53.01
2023-03-11T11:24:27.751Z,56.96
2023-03-11T11:27:15.170Z,59.70
2023-03-11T11:29:45.002Z,60.35
2023-03-11T11:32:28.051Z,63.21
2023-03-11T11:35:14.867Z,61.73
2023-03-11T11:37:49.124Z,60.57
2023-03-11T11:40:25.651Z,60.67
2023-03-11T11:46:12.076Z,57.80
2023-03-11T11:49:34.979Z,57.23
2023-03-11T11:52:21.827Z,56.29
2023-03-11T11:54:59.699Z,56.33
2023-03-11T11:57:27.340Z,54.40
2023-03-11T11:59:55.956Z,56.41
2023-03-11T12:03:13.609Z,56.69
2023-03-11T12:06:10.285Z,55.14
2023-03-11T12:09:30.010Z,58.77
2023-03-11T12:12:09.479Z,65.76
2023-03-11T12:16:22.076Z,66.86
2023-03-11T12:17:59.425Z,68.64
2023-03-11T12:20:50.209Z,71.27
2023-03-11T12:23:27.424Z,74.66
2023-03-11T12:26:48.694Z,77.47
2023-03-11T12:29:49.754Z,80.92
2023-03-11T12:32:54.304Z,82.48
2023-03-11T12:35:32.016Z,84.94
2023-03-11T12:38:35.527Z,92.00
2023-03-11T12:41:31.078Z,93.81
2023-03-11T12:44:23.529Z,94.56
2023-03-11T12:47:17.014Z,91.77
2023-03-11T12:49:46.848Z,87.29
2023-03-11T12:52:14.516Z,82.34
2023-03-11T12:54:43.727Z,79.91
2023-03-11T12:57:17.017Z,76.23
2023-03-11T13:00:12.591Z,75.96
2023-03-11T13:03:10.473Z,73.55
2023-03-11T13:05:48.621Z,72.11
2023-03-11T13:08:36.835Z,71.53
2023-03-11T13:11:33.018Z,70.60
2023-03-11T13:14:15.217Z,71.50
2023-03-11T13:16:44.539Z,71.17
2023-03-11T13:19:26.968Z,70.00
2023-03-11T13:22:00.002Z,69.24
2023-03-11T13:24:27.493Z,68.34
2023-03-11T13:27:02.235Z,67.95
2023-03-11T13:30:00.601Z,66.85
2023-03-11T13:33:00.496Z,66.67
2023-03-11T13:36:10.326Z,64.16
2023-03-11T13:39:02.447Z,65.80
2023-03-11T13:41:37.038Z,65.01
2023-03-11T13:44:19.551Z,65.77
2023-03-11T13:46:50.909Z,64.70
2023-03-11T13:49:43.340Z,64.87
2023-03-11T13:52:24.505Z,64.31
2023-03-11T13:55:10.175Z,63.85
2023-03-11T13:57:38.893Z,65.67
2023-03-11T14:00:47.991Z,64.00
2023-03-11T14:03:22.500Z,64.17
2023-03-11T14:06:19.226Z,63.57
2023-03-11T14:08:59.328Z,61.96
2023-03-11T14:11:29.486Z,62.77
2023-03-11T14:13:58.461Z,62.52
2023-03-11T14:16:44.582Z,61.56
2023-03-11T14:19:17.979Z,60.37
2023-03-11T14:21:47.810Z,60.24
2023-03-11T14:24:24.481Z,59.36
2023-03-11T14:26:56.051Z,59.73
2023-03-11T14:29:43.602Z,58.74
2023-03-11T14:32:32.087Z,57.82
2023-03-11T14:35:00.570Z,58.98
2023-03-11T14:37:38.895Z,60.39
2023-03-11T14:40:34.480Z,62.81
2023-03-11T14:43:07.997Z,61.54
2023-03-11T14:45:38.042Z,62.99
2023-03-11T14:48:27.953Z,61.51
2023-03-11T14:51:00.354Z,61.53
2023-03-11T14:53:39.050Z,63.20
2023-03-11T14:56:44.090Z,64.09
2023-03-11T14:59:39.377Z,64.98
2023-03-11T15:02:47.681Z,64.48
2023-03-11T15:05:49.825Z,65.98
2023-03-11T15:08:23.494Z,66.51
2023-03-11T15:11:13.839Z,67.35
2023-03-11T15:13:45.374Z,67.75
2023-03-11T15:16:34.256Z,68.56
2023-03-11T15:19:21.578Z,68.55
2023-03-11T15:21:50.467Z,68.97
2023-03-11T15:24:38.861Z,69.85
2023-03-11T15:27:49.793Z,70.01
2023-03-11T15:30:23.545Z,70.75
2023-03-11T15:38:40.549Z,70.13
2023-03-11T15:41:10.629Z,71.31
2023-03-11T15:43:58.558Z,73.75
2023-03-11T15:46:36.870Z,78.22
2023-03-11T15:49:16.567Z,77.84
2023-03-11T15:51:46.077Z,78.29
2023-03-11T15:54:54.759Z,79.00
2023-03-11T15:57:48.108Z,79.02
2023-03-11T16:00:24.745Z,80.19
2023-03-11T16:02:52.962Z,81.92
2023-03-11T16:06:00.781Z,84.77
2023-03-11T16:08:40.927Z,86.19
2023-03-11T16:11:44.024Z,87.93
2023-03-11T16:14:33.817Z,88.12
2023-03-11T16:28:43.341Z,85.33
2023-03-11T16:31:19.484Z,85.44
2023-03-11T16:33:56.319Z,85.78
2023-03-11T16:36:36.106Z,80.70
2023-03-11T16:39:16.027Z,80.92
2023-03-11T16:41:51.209Z,77.27
2023-03-11T16:44:50.107Z,78.35
2023-03-11T16:48:07.964Z,79.35
2023-03-11T16:50:37.340Z,78.49
2023-03-11T16:53:05.846Z,77.69
2023-03-11T16:55:33.249Z,78.58
2023-03-11T16:58:04.422Z,81.29
2023-03-11T17:00:38.247Z,80.88
2023-03-11T17:03:42.997Z,78.11
2023-03-11T17:06:12.274Z,77.03
2023-03-11T17:09:29.766Z,76.50
2023-03-11T17:12:22.135Z,81.95
2023-03-11T17:14:51.473Z,79.12
2023-03-11T17:17:37.023Z,78.49
2023-03-11T17:22:53.297Z,77.09
2023-03-11T17:25:28.213Z,76.69
2023-03-11T17:28:04.752Z,76.84
2023-03-11T17:30:38.888Z,77.56
2023-03-11T17:33:06.925Z,79.84
2023-03-11T17:35:36.520Z,77.92
2023-03-11T17:38:16.408Z,79.34
2023-03-11T17:40:44.985Z,78.76
2023-03-11T17:46:41.027Z,78.47
2023-03-11T17:49:35.600Z,79.94
2023-03-11T17:52:03.626Z,79.80
2023-03-11T17:54:30.447Z,78.30
2023-03-11T17:56:57.694Z,79.42
2023-03-11T17:59:24.487Z,75.90
2023-03-11T18:01:55.099Z,74.00
2023-03-11T18:04:23.806Z,74.98
2023-03-11T18:06:50.892Z,73.76
2023-03-11T18:09:18.686Z,74.27
2023-03-11T18:11:46.336Z,74.69
2023-03-11T18:14:21.725Z,74.99
2023-03-11T18:16:52.796Z,76.86
2023-03-11T18:19:58.613Z,77.91
2023-03-11T18:22:27.707Z,74.62
2023-03-11T18:25:05.147Z,75.57
2023-03-11T18:30:48.871Z,76.28
2023-03-11T18:36:40.345Z,76.48
2023-03-11T18:39:22.356Z,74.21
2023-03-11T18:42:49.441Z,76.51
2023-03-11T18:55:50.512Z,72.71
2023-03-11T18:58:21.438Z,76.36
2023-03-11T19:01:14.825Z,74.64
2023-03-11T19:04:03.640Z,72.81
2023-03-11T19:19:30.745Z,75.10
2023-03-11T19:22:28.793Z,73.99
2023-03-11T19:25:28.790Z,74.89
2023-03-11T19:30:53.828Z,72.29
2023-03-11T19:34:04.515Z,72.81
2023-03-11T19:36:43.129Z,70.94
2023-03-11T19:40:04.656Z,71.61
2023-03-11T19:45:45.975Z,74.04
2023-03-11T19:48:37.400Z,73.68
2023-03-11T19:55:23.092Z,72.09
2023-03-11T20:00:34.663Z,71.20
2023-03-11T20:03:20.519Z,72.60
2023-03-11T20:06:08.039Z,71.87
2023-03-11T20:08:47.867Z,72.94
2023-03-11T20:12:03.271Z,70.79
2023-03-11T20:19:15.721Z,68.41
2023-03-11T20:22:07.023Z,67.37
2023-03-11T20:24:28.626Z,66.53
2023-03-11T20:27:50.306Z,68.11
2023-03-11T20:33:57.334Z,66.63
2023-03-11T20:36:53.378Z,66.20
2023-03-11T20:42:59.852Z,65.86
2023-03-11T20:45:59.136Z,65.45
2023-03-11T20:51:32.899Z,65.32
2023-03-11T20:57:44.046Z,63.52
2023-03-11T21:03:27.175Z,63.62
2023-03-11T21:05:55.875Z,63.28
2023-03-11T21:08:47.740Z,63.59
2023-03-11T21:11:29.527Z,62.03
2023-03-11T21:14:44.008Z,63.17
2023-03-11T21:17:41.774Z,65.99
2023-03-11T21:23:03.524Z,64.91
2023-03-11T21:28:26.430Z,61.15
2023-03-11T21:32:05.834Z,61.82
2023-03-11T21:34:33.430Z,63.07
2023-03-11T21:37:00.845Z,62.06
2023-03-11T21:39:27.905Z,59.94
2023-03-11T21:44:48.483Z,60.85
2023-03-11T21:47:43.601Z,57.02
2023-03-11T21:50:11.720Z,57.73
2023-03-11T21:52:38.902Z,59.79
2023-03-11T21:55:12.489Z,58.15
2023-03-11T22:01:10.522Z,60.57
2023-03-11T22:03:44.629Z,56.97
2023-03-11T22:10:23.802Z,60.22
2023-03-11T22:16:27.258Z,60.66
2023-03-11T22:18:30.617Z,58.98
2023-03-11T22:19:00.268Z,57.17
2023-03-11T22:21:41.887Z,56.53
2023-03-11T22:26:24.043Z,57.99
2023-03-11T22:27:15.165Z,59.41
2023-03-11T22:30:03.581Z,56.77
2023-03-11T22:35:37.151Z,59.72
2023-03-11T22:38:36.703Z,59.72
2023-03-11T22:41:32.101Z,59.21
2023-03-11T22:44:26.116Z,60.81
2023-03-11T22:47:31.648Z,57.53
2023-03-11T22:51:00.184Z,58.61
2023-03-11T22:53:48.015Z,58.57
2023-03-11T22:56:38.214Z,55.38
2023-03-11T22:59:32.714Z,60.76
2023-03-11T23:02:42.529Z,54.09
2023-03-11T23:05:56.990Z,59.17
2023-03-11T23:12:04.565Z,56.06
2023-03-11T23:15:46.957Z,58.64
2023-03-11T23:18:22.978Z,55.93
2023-03-11T23:23:35.550Z,56.96
2023-03-11T23:24:48.209Z,57.16
2023-03-11T23:27:51.941Z,57.26
2023-03-11T23:30:50.593Z,57.94
2023-03-11T23:39:27.294Z,59.21
2023-03-11T23:42:22.439Z,57.11
2023-03-11T23:44:59.549Z,57.14
2023-03-11T23:47:40.417Z,56.89
2023-03-11T23:52:59.176Z,57.19
2023-03-11T23:56:19.796Z,60.51
2023-03-11T23:59:00.838Z,56.31
